Harrisburg International Airport (MDT/KMDT)

Map

Destinations

Information

Location
Harrisburg, PA
Local Time
20:11 / 8:11 pm
GMT Time
00:11 / 12:11 am
Gates
Unassigned
No FAA reported delays
METAR KMDT 222356Z 03005KT 10SM CLR 02/M17 A3039 RMK AO2 SLP295 T00171167 10056 20017 53032
TAF KMDT 222329Z 2300/2324 35010G20KT P6SM SKC FM230100 33008KT P6SM SKC FM230300 32005KT P6SM SKC FM231700 13006KT P6SM SCT250
  • No charts available